Rhodhizz, North Carolina
Current Conditions -  °F | °C
As of 8:29 AM on Monday 22 Dec 2014 (Local Time) from KHKY Reporting Station
Haze Haze  
Wind Chill: 31°   Ceiling: 500
Heat Index: 37°   Visibility: 2mi
Dew Point: 35°   Wind: 8mph
Humidity: 93%   Direction: 30°NNE
Pressure: 30.13"   Gusts: NA
Location:  35.7739°N, 81.4315°W
Report Text: KHKY 221329Z 03007KT 2SM BR OVC005 03/02 A3013 RMK AO2 RAE04 CIG 003V009 P0000 T00280017
Loading
Personal Weather Stations






























Interactive Weather Map New forecast layout! Learn more

10-Day Weather Forecast

Advertisements
Track Severe Weather on mobile